createdAt,value
2018-01-18T00:02:19.281Z,3.90
2018-01-18T00:04:46.264Z,3.80
2018-01-18T00:07:13.355Z,3.80
2018-01-18T00:09:39.625Z,3.30
2018-01-18T00:12:05.888Z,3.90
2018-01-18T00:14:32.165Z,3.80
2018-01-18T00:17:00.365Z,3.70
2018-01-18T00:19:26.689Z,3.80
2018-01-18T00:21:52.949Z,3.70
2018-01-18T00:24:20.226Z,3.80
2018-01-18T00:26:46.480Z,3.90
2018-01-18T00:29:12.781Z,3.80
2018-01-18T00:31:39.045Z,3.80
2018-01-18T00:34:06.232Z,3.70
2018-01-18T00:36:32.509Z,3.80
2018-01-18T00:38:59.489Z,3.90
2018-01-18T00:41:25.984Z,3.80
2018-01-18T00:43:52.307Z,3.90
2018-01-18T00:46:18.568Z,3.80
2018-01-18T00:48:44.874Z,3.70
2018-01-18T00:51:11.146Z,3.90
2018-01-18T00:53:37.398Z,4.00
2018-01-18T00:56:03.689Z,3.90
2018-01-18T00:58:29.945Z,4.00
2018-01-18T01:00:56.228Z,4.00
2018-01-18T01:03:22.464Z,4.00
2018-01-18T01:05:48.726Z,3.80
2018-01-18T01:08:14.992Z,3.80
2018-01-18T01:10:41.249Z,4.00
2018-01-18T01:13:07.543Z,3.80
2018-01-18T01:15:33.785Z,3.80
2018-01-18T01:18:00.042Z,4.10
2018-01-18T01:20:26.330Z,4.10
2018-01-18T01:22:52.595Z,4.20
2018-01-18T01:25:18.913Z,4.10
2018-01-18T01:27:45.932Z,3.90
2018-01-18T01:30:12.207Z,4.20
2018-01-18T01:32:38.476Z,4.10
2018-01-18T01:35:04.774Z,4.30
2018-01-18T01:37:31.115Z,4.20
2018-01-18T01:39:57.409Z,4.00
2018-01-18T01:42:23.703Z,4.20
2018-01-18T01:44:49.978Z,4.20
2018-01-18T01:47:16.307Z,4.10
2018-01-18T01:49:42.596Z,4.10
2018-01-18T01:52:09.672Z,4.20
2018-01-18T01:54:35.933Z,4.00
2018-01-18T01:57:02.974Z,4.00
2018-01-18T01:59:30.011Z,4.30
2018-01-18T02:01:57.104Z,3.90
2018-01-18T02:04:23.419Z,4.20
2018-01-18T02:06:49.690Z,4.10
2018-01-18T02:09:16.049Z,4.10
2018-01-18T02:11:42.365Z,4.00
2018-01-18T02:14:08.629Z,4.10
2018-01-18T02:16:35.654Z,4.00
2018-01-18T02:19:02.697Z,4.30
2018-01-18T02:21:30.540Z,4.00
2018-01-18T02:23:59.022Z,4.00
2018-01-18T02:26:27.362Z,4.00
2018-01-18T02:28:54.841Z,4.20
2018-01-18T02:31:21.138Z,4.10
2018-01-18T02:33:47.434Z,4.50
2018-01-18T02:36:14.518Z,3.90
2018-01-18T02:38:40.804Z,4.00
2018-01-18T02:41:07.104Z,4.00
2018-01-18T02:43:33.366Z,4.00
2018-01-18T02:45:59.657Z,4.00
2018-01-18T02:48:25.982Z,4.00
2018-01-18T02:50:52.281Z,4.00
2018-01-18T02:53:18.598Z,4.00
2018-01-18T02:55:44.892Z,4.10
2018-01-18T02:58:12.003Z,4.00
2018-01-18T03:00:38.285Z,4.00
2018-01-18T03:03:04.544Z,4.20
2018-01-18T03:05:30.831Z,4.20
2018-01-18T03:07:57.094Z,4.10
2018-01-18T03:10:24.145Z,4.10
2018-01-18T03:12:50.436Z,4.10
2018-01-18T03:15:16.742Z,4.20
2018-01-18T03:17:43.023Z,4.20
2018-01-18T03:20:09.330Z,4.50
2018-01-18T03:22:35.587Z,4.30
2018-01-18T03:25:02.654Z,4.10
2018-01-18T03:27:28.923Z,4.20
2018-01-18T03:29:55.225Z,4.10
2018-01-18T03:32:21.513Z,4.30
2018-01-18T03:34:47.791Z,4.40
2018-01-18T03:37:14.862Z,4.40
2018-01-18T03:39:41.134Z,4.50
2018-01-18T03:42:07.452Z,4.30
2018-01-18T03:44:34.479Z,4.60
2018-01-18T03:47:00.789Z,4.80
2018-01-18T03:49:27.159Z,4.70
2018-01-18T03:51:53.418Z,4.50
2018-01-18T03:54:19.719Z,4.30
2018-01-18T03:56:45.996Z,4.40
2018-01-18T03:59:12.316Z,4.50
2018-01-18T04:01:38.602Z,4.70
2018-01-18T04:04:05.647Z,4.70
2018-01-18T04:06:31.971Z,4.60
2018-01-18T04:08:58.982Z,4.50
2018-01-18T04:11:26.010Z,4.50
2018-01-18T04:13:53.121Z,4.50
2018-01-18T04:16:20.018Z,4.40
2018-01-18T04:18:46.360Z,4.70
2018-01-18T04:21:12.620Z,4.60
2018-01-18T04:23:38.903Z,4.50
2018-01-18T04:26:05.174Z,4.30
2018-01-18T04:28:31.465Z,4.50
2018-01-18T04:30:57.790Z,4.50
2018-01-18T04:33:24.049Z,4.00
2018-01-18T04:35:50.317Z,4.60
2018-01-18T04:38:16.628Z,4.70
2018-01-18T04:40:42.919Z,4.40
2018-01-18T04:43:09.939Z,4.70
2018-01-18T04:45:36.226Z,4.30
2018-01-18T04:48:02.536Z,4.40
2018-01-18T04:50:28.981Z,3.80
2018-01-18T04:52:55.278Z,4.30
2018-01-18T04:55:21.589Z,4.40
2018-01-18T04:57:48.267Z,4.20
2018-01-18T05:00:15.281Z,4.40
2018-01-18T05:02:41.581Z,4.20
2018-01-18T05:05:07.863Z,4.40
2018-01-18T05:07:34.174Z,4.00
2018-01-18T05:10:00.473Z,4.90
2018-01-18T05:12:26.911Z,4.20
2018-01-18T05:14:53.205Z,4.50
2018-01-18T05:17:19.460Z,4.70
2018-01-18T05:19:45.733Z,3.90
2018-01-18T05:22:12.745Z,4.50
2018-01-18T05:24:39.750Z,4.40
2018-01-18T05:27:06.074Z,4.50
2018-01-18T05:29:32.345Z,4.60
2018-01-18T05:31:58.645Z,4.70
2018-01-18T05:34:24.966Z,4.50
2018-01-18T05:36:51.269Z,4.50
2018-01-18T05:39:18.877Z,4.70
2018-01-18T05:41:45.181Z,4.40
2018-01-18T05:44:11.454Z,4.30
2018-01-18T05:46:37.733Z,4.40
2018-01-18T05:49:04.014Z,4.60
2018-01-18T05:51:30.268Z,4.60
2018-01-18T05:53:56.561Z,4.40
2018-01-18T05:56:22.848Z,4.40
2018-01-18T05:58:49.186Z,4.90
2018-01-18T06:01:15.446Z,4.40
2018-01-18T06:03:42.501Z,4.60
2018-01-18T06:06:08.803Z,4.40
2018-01-18T06:08:35.047Z,4.40
2018-01-18T06:11:01.399Z,4.40
2018-01-18T06:13:27.665Z,4.30
2018-01-18T06:15:53.929Z,4.30
2018-01-18T06:18:20.275Z,4.50
2018-01-18T06:20:46.533Z,4.40
2018-01-18T06:23:12.831Z,4.40
2018-01-18T06:25:39.105Z,4.40
2018-01-18T06:28:05.360Z,4.40
2018-01-18T06:30:31.674Z,4.40
2018-01-18T06:32:58.269Z,4.30
2018-01-18T06:35:24.566Z,4.30
2018-01-18T06:37:50.854Z,4.40
2018-01-18T06:40:17.113Z,4.20
2018-01-18T06:42:44.146Z,4.50
2018-01-18T06:45:11.148Z,4.00
2018-01-18T06:47:37.461Z,4.40
2018-01-18T06:50:03.725Z,4.50
2018-01-18T06:52:29.992Z,4.40
2018-01-18T06:54:56.334Z,4.50
2018-01-18T06:57:23.373Z,4.50
2018-01-18T06:59:50.421Z,4.70
2018-01-18T07:02:16.749Z,4.60
2018-01-18T07:04:43.003Z,4.60
2018-01-18T07:07:09.339Z,4.70
2018-01-18T07:09:36.385Z,4.80
2018-01-18T07:12:02.716Z,4.80
2018-01-18T07:14:29.714Z,4.90
2018-01-18T07:16:55.965Z,5.00
2018-01-18T07:19:22.299Z,5.00
2018-01-18T07:21:48.553Z,5.30
2018-01-18T07:24:14.840Z,4.90
2018-01-18T07:26:41.110Z,4.80
2018-01-18T07:29:08.116Z,5.20
2018-01-18T07:31:34.418Z,5.00
2018-01-18T07:34:00.697Z,4.90
2018-01-18T07:36:27.001Z,5.10
2018-01-18T07:38:53.502Z,5.20
2018-01-18T07:41:20.728Z,5.20
2018-01-18T07:43:47.090Z,5.00
2018-01-18T07:46:13.386Z,5.20
2018-01-18T07:48:39.704Z,5.10
2018-01-18T07:51:05.998Z,5.10
2018-01-18T07:53:32.980Z,5.50
2018-01-18T07:55:59.279Z,5.20
2018-01-18T07:58:25.551Z,5.30
2018-01-18T08:00:52.750Z,5.50
2018-01-18T08:03:25.045Z,5.10
2018-01-18T08:05:51.348Z,5.30
2018-01-18T08:08:17.673Z,5.30
2018-01-18T08:10:44.757Z,5.30
2018-01-18T08:13:11.397Z,5.40
2018-01-18T08:15:37.702Z,5.70
2018-01-18T08:18:04.879Z,5.50
2018-01-18T08:20:32.037Z,5.70
2018-01-18T08:22:58.532Z,5.00
2018-01-18T08:25:25.745Z,5.50
2018-01-18T08:27:52.013Z,5.80
2018-01-18T08:30:18.279Z,5.60
2018-01-18T08:32:44.578Z,5.70
2018-01-18T08:35:11.424Z,5.90
2018-01-18T08:37:37.938Z,5.70
2018-01-18T08:40:04.733Z,5.80
2018-01-18T08:42:34.666Z,6.00
2018-01-18T08:45:01.095Z,6.00
2018-01-18T08:47:27.442Z,6.00
2018-01-18T08:49:54.148Z,6.00
2018-01-18T08:52:20.442Z,6.10
2018-01-18T08:54:47.144Z,6.00
2018-01-18T08:57:14.390Z,6.10
2018-01-18T08:59:40.965Z,6.00
2018-01-18T09:02:08.006Z,6.40
2018-01-18T09:04:39.737Z,6.50
2018-01-18T09:07:06.749Z,6.60
2018-01-18T09:09:33.041Z,6.70
2018-01-18T09:11:59.301Z,6.50
2018-01-18T09:14:26.340Z,6.80
2018-01-18T09:16:52.611Z,6.20
2018-01-18T09:19:19.548Z,6.60
2018-01-18T09:21:46.112Z,6.70
2018-01-18T09:24:13.184Z,6.90
2018-01-18T09:26:40.216Z,6.80
2018-01-18T09:29:06.788Z,6.90
2018-01-18T09:31:33.793Z,7.10
2018-01-18T09:34:00.427Z,7.30
2018-01-18T09:36:27.293Z,7.10
2018-01-18T09:38:53.798Z,7.50
2018-01-18T09:41:22.167Z,7.80
2018-01-18T09:43:48.652Z,7.70
2018-01-18T09:46:15.182Z,7.70
2018-01-18T09:48:42.842Z,7.80
2018-01-18T09:51:10.208Z,8.00
2018-01-18T09:53:36.873Z,8.20
2018-01-18T09:56:03.479Z,8.50
2018-01-18T09:58:30.246Z,8.30
2018-01-18T10:00:57.204Z,8.20
2018-01-18T10:03:23.477Z,8.50
2018-01-18T10:05:49.829Z,9.00
2018-01-18T10:08:16.154Z,9.00
2018-01-18T10:10:42.934Z,9.40
2018-01-18T10:13:09.258Z,9.70
2018-01-18T10:15:35.542Z,10.50
2018-01-18T10:18:01.856Z,10.60
2018-01-18T10:20:28.227Z,11.00
2018-01-18T10:22:55.685Z,11.20
2018-01-18T10:25:21.971Z,11.70
2018-01-18T10:27:48.296Z,11.10
2018-01-18T10:30:14.557Z,11.40
2018-01-18T10:32:40.842Z,11.70
2018-01-18T10:35:07.134Z,11.50
2018-01-18T10:37:33.435Z,11.60
2018-01-18T10:39:59.752Z,11.40
2018-01-18T10:42:26.063Z,10.80
2018-01-18T10:44:52.364Z,10.40
2018-01-18T10:47:18.610Z,10.10
2018-01-18T10:49:44.954Z,10.30
2018-01-18T10:52:11.977Z,10.20
2018-01-18T10:54:38.975Z,10.50
2018-01-18T10:57:06.045Z,10.70
2018-01-18T10:59:33.042Z,12.70
2018-01-18T11:01:59.434Z,12.70
2018-01-18T11:04:25.729Z,12.40
2018-01-18T11:06:52.004Z,12.10
2018-01-18T11:09:18.355Z,12.80
2018-01-18T11:11:44.617Z,14.50
2018-01-18T11:14:10.909Z,14.50
2018-01-18T11:16:37.169Z,13.90
2018-01-18T11:19:03.429Z,12.70
2018-01-18T11:21:29.773Z,12.10
2018-01-18T11:23:56.026Z,10.90
2018-01-18T11:26:23.044Z,10.70
2018-01-18T11:28:49.337Z,10.80
2018-01-18T11:31:15.665Z,10.60
2018-01-18T11:33:41.926Z,10.10
2018-01-18T11:36:08.232Z,9.80
2018-01-18T11:38:34.511Z,9.60
2018-01-18T11:41:00.777Z,9.40
2018-01-18T11:43:27.054Z,9.40
2018-01-18T11:45:53.745Z,9.70
2018-01-18T11:48:20.017Z,9.40
2018-01-18T11:50:46.316Z,9.40
2018-01-18T11:53:13.334Z,9.90
2018-01-18T11:55:39.631Z,10.10
2018-01-18T11:58:05.926Z,10.10
2018-01-18T12:00:32.454Z,9.90
2018-01-18T12:02:58.721Z,10.10
2018-01-18T12:05:25.760Z,10.90
2018-01-18T12:07:52.046Z,10.90
2018-01-18T12:10:21.902Z,11.60
2018-01-18T12:12:48.188Z,11.60
2018-01-18T12:15:14.476Z,11.50
2018-01-18T12:17:40.729Z,11.60
2018-01-18T12:20:09.351Z,11.60
2018-01-18T12:22:36.931Z,11.50
2018-01-18T12:25:10.118Z,11.60
2018-01-18T12:27:37.350Z,11.70
2018-01-18T12:30:04.021Z,11.20
2018-01-18T12:32:30.718Z,11.30
2018-01-18T12:34:57.722Z,11.40
2018-01-18T12:37:24.756Z,11.40
2018-01-18T12:39:51.819Z,11.40
2018-01-18T12:42:18.839Z,11.60
2018-01-18T12:44:45.487Z,11.00
2018-01-18T12:47:11.774Z,11.40
2018-01-18T12:49:38.191Z,11.50
2018-01-18T12:52:04.567Z,11.30
2018-01-18T12:54:32.641Z,11.70
2018-01-18T12:56:59.011Z,11.70
2018-01-18T12:59:25.493Z,11.70
2018-01-18T13:01:51.776Z,11.30
2018-01-18T13:04:18.393Z,11.60
2018-01-18T13:06:44.753Z,11.70
2018-01-18T13:09:11.012Z,12.00
2018-01-18T13:11:37.296Z,11.80
2018-01-18T13:14:03.556Z,11.80
2018-01-18T13:16:29.849Z,12.00
2018-01-18T13:18:56.121Z,11.70
2018-01-18T13:21:23.226Z,11.80
2018-01-18T13:23:49.529Z,11.90
2018-01-18T13:26:15.797Z,11.90
2018-01-18T13:28:42.115Z,11.60
2018-01-18T13:31:08.385Z,11.50
2018-01-18T13:33:34.649Z,11.40
2018-01-18T13:36:00.943Z,11.30
2018-01-18T13:38:27.974Z,11.10
2018-01-18T13:40:54.294Z,10.90
2018-01-18T13:43:21.301Z,10.70
2018-01-18T13:45:47.593Z,10.80
2018-01-18T13:48:13.874Z,10.80
2018-01-18T13:50:40.155Z,10.80
2018-01-18T13:53:07.174Z,10.90
2018-01-18T13:55:33.446Z,10.70
2018-01-18T13:58:15.825Z,10.70
2018-01-18T14:00:42.090Z,10.80
2018-01-18T14:03:08.419Z,10.60
2018-01-18T14:05:35.422Z,10.70
2018-01-18T14:08:01.773Z,10.90
2018-01-18T14:10:28.074Z,10.70
2018-01-18T14:12:54.334Z,10.70
2018-01-18T14:15:20.585Z,10.70
2018-01-18T14:17:46.905Z,11.00
2018-01-18T14:20:13.255Z,10.70
2018-01-18T14:22:40.302Z,11.10
2018-01-18T14:25:06.577Z,11.00
2018-01-18T14:27:33.117Z,11.10
2018-01-18T14:30:00.157Z,10.70
2018-01-18T14:32:27.217Z,10.70
2018-01-18T14:34:53.622Z,10.70
2018-01-18T14:37:19.896Z,10.70
2018-01-18T14:39:47.507Z,10.40
2018-01-18T14:42:13.802Z,10.30
2018-01-18T14:44:40.058Z,10.10
2018-01-18T14:47:06.358Z,9.90
2018-01-18T14:49:32.638Z,9.80
2018-01-18T14:51:59.653Z,9.60
2018-01-18T14:54:25.936Z,9.60
2018-01-18T14:56:52.214Z,9.50
2018-01-18T14:59:18.509Z,9.40
2018-01-18T15:01:45.509Z,9.50
2018-01-18T15:04:11.802Z,9.80
2018-01-18T15:06:38.170Z,9.20
2018-01-18T15:09:05.185Z,9.30
2018-01-18T15:11:31.517Z,9.00
2018-01-18T15:13:58.524Z,9.00
2018-01-18T15:16:24.810Z,8.90
2018-01-18T15:18:51.095Z,8.90
2018-01-18T15:21:17.382Z,8.90
2018-01-18T15:23:43.629Z,8.70
2018-01-18T15:26:09.907Z,8.80
2018-01-18T15:28:36.189Z,8.70
2018-01-18T15:31:02.449Z,8.60
2018-01-18T15:33:29.517Z,8.50
2018-01-18T15:35:55.802Z,8.50
2018-01-18T15:38:22.086Z,8.40
2018-01-18T15:40:48.377Z,8.40
2018-01-18T15:43:14.624Z,8.70
2018-01-18T15:45:40.904Z,8.20
2018-01-18T15:48:07.179Z,8.40
2018-01-18T15:50:34.225Z,8.50
2018-01-18T15:53:00.477Z,8.30
2018-01-18T15:55:26.765Z,8.20
2018-01-18T15:57:53.113Z,8.10
2018-01-18T16:00:19.397Z,8.40
2018-01-18T16:02:46.340Z,8.10
2018-01-18T16:05:12.756Z,8.00
2018-01-18T16:07:39.023Z,8.00
2018-01-18T16:10:05.402Z,8.00
2018-01-18T16:12:32.533Z,7.90
2018-01-18T16:14:58.813Z,7.90
2018-01-18T16:17:25.065Z,7.80
2018-01-18T16:19:51.321Z,7.80
2018-01-18T16:22:18.720Z,7.80
2018-01-18T16:24:45.062Z,7.70
2018-01-18T16:27:11.355Z,7.60
2018-01-18T16:29:37.652Z,7.70
2018-01-18T16:32:03.959Z,7.40
2018-01-18T16:34:30.259Z,7.40
2018-01-18T16:36:58.558Z,7.20
2018-01-18T16:39:24.911Z,7.80
2018-01-18T16:41:51.534Z,7.70
2018-01-18T16:44:17.803Z,7.40
2018-01-18T16:46:44.141Z,7.10
2018-01-18T16:49:10.493Z,7.20
2018-01-18T16:51:37.572Z,7.10
2018-01-18T16:54:04.410Z,7.40
2018-01-18T16:56:30.684Z,7.10
2018-01-18T16:58:59.059Z,6.90
2018-01-18T17:01:25.339Z,6.90
2018-01-18T17:03:51.668Z,6.80
2018-01-18T17:08:50.098Z,6.90
2018-01-18T17:11:16.386Z,6.80
2018-01-18T17:13:42.691Z,6.80
2018-01-18T17:16:09.013Z,6.70
2018-01-18T17:18:35.404Z,6.60
2018-01-18T17:21:02.452Z,6.70
2018-01-18T17:23:28.748Z,6.50
2018-01-18T17:25:55.037Z,6.80
2018-01-18T17:28:21.338Z,6.70
2018-01-18T17:30:47.841Z,6.60
2018-01-18T17:33:14.108Z,7.00
2018-01-18T17:35:40.430Z,6.60
2018-01-18T17:38:07.482Z,6.60
2018-01-18T17:40:33.780Z,6.40
2018-01-18T17:43:00.782Z,6.70
2018-01-18T17:45:27.050Z,6.70
2018-01-18T17:47:53.348Z,6.60
2018-01-18T17:50:20.345Z,6.30
2018-01-18T17:52:46.658Z,6.40
2018-01-18T17:55:13.187Z,6.40
2018-01-18T17:57:39.477Z,6.50
2018-01-18T18:00:05.944Z,6.60
2018-01-18T18:02:32.375Z,6.30
2018-01-18T18:04:59.513Z,6.40
2018-01-18T18:07:26.020Z,6.30
2018-01-18T18:09:53.194Z,6.30
2018-01-18T18:12:19.581Z,6.20
2018-01-18T18:14:46.010Z,6.00
2018-01-18T18:17:12.417Z,6.20
2018-01-18T18:19:39.559Z,6.10
2018-01-18T18:22:05.929Z,6.00
2018-01-18T18:24:32.373Z,6.00
2018-01-18T18:26:58.749Z,6.50
2018-01-18T18:29:25.237Z,6.20
2018-01-18T18:31:51.763Z,6.20
2018-01-18T18:34:18.167Z,6.00
2018-01-18T18:36:45.340Z,5.90
2018-01-18T18:39:11.630Z,6.20
2018-01-18T18:41:37.972Z,6.10
2018-01-18T18:44:04.251Z,5.80
2018-01-18T18:46:31.265Z,5.90
2018-01-18T18:48:58.351Z,5.70
2018-01-18T18:51:24.622Z,5.60
2018-01-18T18:53:53.149Z,5.80
2018-01-18T18:56:19.405Z,5.40
2018-01-18T18:58:45.720Z,5.50
2018-01-18T19:01:12.817Z,5.30
2018-01-18T19:03:39.105Z,5.40
2018-01-18T19:06:06.070Z,5.50
2018-01-18T19:08:32.605Z,5.60
2018-01-18T19:11:01.350Z,5.30
2018-01-18T19:13:27.741Z,5.30
2018-01-18T19:15:54.305Z,5.40
2018-01-18T19:18:20.561Z,5.50
2018-01-18T19:20:46.865Z,5.20
2018-01-18T19:23:13.889Z,5.20
2018-01-18T19:25:40.165Z,5.10
2018-01-18T19:28:06.718Z,5.10
2018-01-18T19:30:32.982Z,5.20
2018-01-18T19:32:59.287Z,5.10
2018-01-18T19:35:25.595Z,5.30
2018-01-18T19:37:53.067Z,5.20
2018-01-18T19:40:19.360Z,4.90
2018-01-18T19:42:45.697Z,5.20
2018-01-18T19:45:12.230Z,5.10
2018-01-18T19:47:38.577Z,5.30
2018-01-18T19:50:04.886Z,5.10
2018-01-18T19:52:31.151Z,5.30
2018-01-18T19:54:57.461Z,5.30
2018-01-18T19:57:23.766Z,5.30
2018-01-18T19:59:50.041Z,5.10
2018-01-18T20:02:16.454Z,5.30
2018-01-18T20:04:43.739Z,4.90
2018-01-18T20:07:10.052Z,5.20
2018-01-18T20:09:36.581Z,5.40
2018-01-18T20:12:02.885Z,5.00
2018-01-18T20:14:30.094Z,5.60
2018-01-18T20:16:56.407Z,5.50
2018-01-18T20:19:24.376Z,5.80
2018-01-18T20:21:50.681Z,5.80
2018-01-18T20:24:16.941Z,5.70
2018-01-18T20:26:43.339Z,5.50
2018-01-18T20:29:09.711Z,5.70
2018-01-18T20:31:37.125Z,5.90
2018-01-18T20:34:03.662Z,5.70
2018-01-18T20:36:30.113Z,5.90
2018-01-18T20:38:56.777Z,5.70
2018-01-18T20:41:23.049Z,5.80
2018-01-18T20:43:49.315Z,5.70
2018-01-18T20:46:15.799Z,5.70
2018-01-18T20:48:42.110Z,5.10
2018-01-18T20:51:08.438Z,6.20
2018-01-18T20:53:35.458Z,6.00
2018-01-18T20:56:02.529Z,6.00
2018-01-18T20:58:28.854Z,5.70
2018-01-18T21:00:55.401Z,5.70
2018-01-18T21:03:21.729Z,6.30
2018-01-18T21:05:48.037Z,5.20
2018-01-18T21:08:14.454Z,5.80
2018-01-18T21:10:40.765Z,5.90
2018-01-18T21:13:07.051Z,5.80
2018-01-18T21:15:33.505Z,5.80
2018-01-18T21:17:59.935Z,5.80
2018-01-18T21:20:26.452Z,5.70
2018-01-18T21:22:52.738Z,6.00
2018-01-18T21:25:19.039Z,5.70
2018-01-18T21:27:46.336Z,6.10
2018-01-18T21:30:13.379Z,5.90
2018-01-18T21:32:39.781Z,5.80
2018-01-18T21:35:06.329Z,5.80
2018-01-18T21:37:32.645Z,6.30
2018-01-18T21:39:59.127Z,5.90
2018-01-18T21:42:26.634Z,6.20
2018-01-18T21:44:53.802Z,5.80
2018-01-18T21:47:21.126Z,6.10
2018-01-18T21:49:58.440Z,5.90
2018-01-18T21:52:25.474Z,6.00
2018-01-18T21:54:54.046Z,5.80
2018-01-18T21:57:31.941Z,5.30
2018-01-18T22:00:00.881Z,6.00
2018-01-18T22:02:27.350Z,5.30
2018-01-18T22:04:53.800Z,5.90
2018-01-18T22:07:20.057Z,6.00
2018-01-18T22:09:46.757Z,6.10
2018-01-18T22:12:14.644Z,5.90
2018-01-18T22:14:40.982Z,5.90
2018-01-18T22:17:07.242Z,5.60
2018-01-18T22:19:35.098Z,5.80
2018-01-18T22:22:03.164Z,5.90
2018-01-18T22:24:30.434Z,5.80
2018-01-18T22:26:56.782Z,5.80
2018-01-18T22:29:23.483Z,5.70
2018-01-18T22:31:49.965Z,5.90
2018-01-18T22:34:16.378Z,6.40
2018-01-18T22:36:42.904Z,5.80
2018-01-18T22:39:09.171Z,5.60
2018-01-18T22:41:35.843Z,5.70
2018-01-18T22:44:02.271Z,5.80
2018-01-18T22:46:28.901Z,5.90
2018-01-18T22:48:55.254Z,5.80
2018-01-18T22:51:22.805Z,5.60
2018-01-18T22:53:49.146Z,5.90
2018-01-18T22:56:15.444Z,5.90
2018-01-18T22:58:41.702Z,5.40
2018-01-18T23:01:08.754Z,5.70
2018-01-18T23:03:35.082Z,5.80
2018-01-18T23:06:01.575Z,5.80
2018-01-18T23:08:28.209Z,5.60
2018-01-18T23:10:54.586Z,5.80
2018-01-18T23:13:20.918Z,5.60
2018-01-18T23:15:47.230Z,5.50
2018-01-18T23:18:13.830Z,5.80
2018-01-18T23:20:40.117Z,5.60
2018-01-18T23:23:06.454Z,5.60
2018-01-18T23:25:32.891Z,5.40
2018-01-18T23:27:59.241Z,5.50
2018-01-18T23:30:26.055Z,5.50
2018-01-18T23:32:53.225Z,5.60
2018-01-18T23:35:19.607Z,5.40
2018-01-18T23:37:46.710Z,5.80
2018-01-18T23:40:13.480Z,5.50
2018-01-18T23:42:39.856Z,5.60
2018-01-18T23:45:06.925Z,5.70
2018-01-18T23:47:33.365Z,5.50
2018-01-18T23:50:00.980Z,5.40
2018-01-18T23:52:27.243Z,5.60
2018-01-18T23:54:53.506Z,5.40
2018-01-18T23:57:32.250Z,5.40
2018-01-18T23:59:58.547Z,5.20
